Time;durP1;ratioP1;P1;durP2;ratioP2;P2;SDS_P1;SDS_P2;PMS_P1;PMS_P2;Temp;Humidity;BMP_temperature;BMP_pressure;BME280_temperature;BME280_humidity;BME280_pressure;Samples;Min_cycle;Max_cycle;Signal;HPM_P1;HPM_P2
2022/07/27 00:01:46;;;;;;;3.30;2.20;;;;;;;18.10;51.51;93932.41;4975826;28;20153;-70
2022/07/27 00:04:18;;;;;;;4.63;2.10;;;;;;;17.88;51.38;93929.78;4992963;28;20454;-72
2022/07/27 00:06:46;;;;;;;4.03;2.28;;;;;;;17.72;51.94;93927.28;4976069;28;20039;-71
2022/07/27 00:09:13;;;;;;;4.68;2.50;;;;;;;17.62;52.30;93923.75;4973475;28;20039;-73
2022/07/27 00:11:40;;;;;;;4.75;2.47;;;;;;;17.56;52.75;93928.34;4972581;28;20057;-72
2022/07/27 00:14:07;;;;;;;4.33;2.33;;;;;;;17.34;53.20;93922.94;4973444;28;20049;-72
2022/07/27 00:16:34;;;;;;;4.35;2.38;;;;;;;17.27;53.49;93924.00;4985838;28;20088;-71
2022/07/27 00:19:01;;;;;;;5.32;2.50;;;;;;;17.27;53.54;93912.91;4991615;28;20084;-71
2022/07/27 00:21:28;;;;;;;4.07;2.60;;;;;;;17.29;53.50;93904.91;4986474;28;20044;-71
2022/07/27 00:23:55;;;;;;;4.10;2.50;;;;;;;17.13;53.69;93905.19;4974022;28;20041;-70
2022/07/27 00:26:22;;;;;;;5.17;2.43;;;;;;;16.95;54.11;93897.56;4985544;28;20053;-70
2022/07/27 00:28:49;;;;;;;4.03;2.20;;;;;;;16.94;54.13;93896.81;4972457;28;20073;-70
2022/07/27 00:31:16;;;;;;;5.22;2.53;;;;;;;16.78;54.55;93892.25;4972944;28;20038;-70
2022/07/27 00:33:43;;;;;;;4.35;2.40;;;;;;;17.13;53.71;93902.41;4983641;28;20053;-69
2022/07/27 00:36:09;;;;;;;4.18;2.40;;;;;;;17.23;53.61;93897.66;4988997;28;20504;-70
2022/07/27 00:38:36;;;;;;;4.37;2.13;;;;;;;17.22;53.63;93893.31;4972332;28;20073;-69
2022/07/27 00:41:03;;;;;;;4.63;2.28;;;;;;;17.25;53.59;93893.19;4972985;28;20499;-69
2022/07/27 00:43:30;;;;;;;4.05;2.58;;;;;;;17.19;53.56;93900.56;4972295;28;20050;-69
2022/07/27 00:45:57;;;;;;;4.15;2.50;;;;;;;17.16;53.52;93898.69;4972795;28;20045;-69
2022/07/27 00:48:23;;;;;;;4.25;2.50;;;;;;;17.15;53.61;93897.16;4989179;28;20415;-69
2022/07/27 00:50:55;;;;;;;4.10;2.40;;;;;;;17.19;53.79;93891.47;4991353;28;21602;-70
2022/07/27 00:53:22;;;;;;;4.63;2.50;;;;;;;17.15;53.99;93889.63;4991887;28;20050;-70
2022/07/27 00:55:48;;;;;;;4.35;2.25;;;;;;;17.36;53.57;93892.72;4991713;28;20038;-70
2022/07/27 00:58:16;;;;;;;4.20;2.38;;;;;;;17.26;53.99;93888.41;4992052;28;20035;-69
2022/07/27 01:00:43;;;;;;;3.95;2.30;;;;;;;17.26;53.88;93885.63;4991369;28;20073;-70
2022/07/27 01:03:10;;;;;;;4.17;2.50;;;;;;;17.29;53.78;93893.81;4995154;28;20046;-70
2022/07/27 01:05:37;;;;;;;4.20;2.33;;;;;;;17.34;54.05;93895.19;4989815;28;20038;-70
2022/07/27 01:08:10;;;;;;;34.33;21.20;;;;;;;17.35;53.55;93883.66;4991760;28;20050;-68
2022/07/27 01:10:39;;;;;;;9.38;4.78;;;;;;;17.31;53.39;93879.47;4991057;28;20048;-68
2022/07/27 01:13:07;;;;;;;3.70;2.40;;;;;;;17.24;53.58;93874.97;4991556;28;20060;-68
2022/07/27 01:15:39;;;;;;;4.77;2.43;;;;;;;17.20;53.69;93879.16;4989504;28;20050;-68
2022/07/27 01:18:11;;;;;;;5.03;2.40;;;;;;;17.27;53.89;93879.63;4991865;28;20064;-68
2022/07/27 01:20:40;;;;;;;5.63;2.38;;;;;;;17.42;53.52;93884.56;4990913;28;20043;-68
2022/07/27 01:23:08;;;;;;;4.22;2.35;;;;;;;17.52;53.03;93877.78;4991709;28;20044;-69
2022/07/27 01:25:34;;;;;;;3.25;2.10;;;;;;;17.51;53.20;93871.47;4990742;28;20046;-68
2022/07/27 01:28:01;;;;;;;3.73;2.20;;;;;;;17.17;54.12;93875.28;4991003;28;20050;-69
2022/07/27 01:30:31;;;;;;;6.93;2.45;;;;;;;17.13;54.35;93866.34;4990782;28;20053;-68
2022/07/27 01:33:02;;;;;;;4.82;2.50;;;;;;;17.24;54.13;93872.22;4991244;28;20050;-68
2022/07/27 01:35:29;;;;;;;4.03;2.58;;;;;;;17.01;54.79;93878.34;4999218;28;20050;-68
2022/07/27 01:37:56;;;;;;;3.72;2.40;;;;;;;17.07;54.81;93870.97;4991029;28;20448;-68
2022/07/27 01:40:23;;;;;;;5.00;2.30;;;;;;;16.73;55.81;93872.69;4990242;28;20042;-68
2022/07/27 01:42:50;;;;;;;4.15;2.70;;;;;;;16.83;55.71;93868.75;4990648;28;20080;-68
2022/07/27 01:45:17;;;;;;;16.35;10.40;;;;;;;17.11;54.61;93866.81;4991379;28;20058;-68
2022/07/27 01:47:43;;;;;;;5.03;2.65;;;;;;;17.24;54.54;93863.13;4989108;28;20050;-68
2022/07/27 01:50:10;;;;;;;4.43;2.50;;;;;;;17.32;54.09;93870.69;4991067;28;20403;-68
2022/07/27 01:52:38;;;;;;;3.60;2.30;;;;;;;17.47;54.13;93868.09;4990302;28;20454;-68
2022/07/27 01:55:09;;;;;;;4.22;2.35;;;;;;;17.40;54.07;93862.84;4990719;28;20096;-69
2022/07/27 01:57:37;;;;;;;3.78;2.47;;;;;;;17.54;54.09;93859.44;4990258;28;20054;-68
2022/07/27 02:00:06;;;;;;;4.20;2.25;;;;;;;17.57;54.51;93847.44;4990902;28;20050;-68
2022/07/27 02:02:33;;;;;;;5.00;2.60;;;;;;;17.53;54.30;93843.28;4994115;28;20044;-68
2022/07/27 02:05:00;;;;;;;5.07;2.50;;;;;;;17.36;54.85;93840.81;4990750;28;20404;-68
2022/07/27 02:07:27;;;;;;;4.25;2.40;;;;;;;17.36;54.83;93838.03;4990239;28;20054;-67
2022/07/27 02:09:53;;;;;;;4.43;2.50;;;;;;;17.35;54.51;93841.28;4990876;28;20038;-69
2022/07/27 02:12:35;;;;;;;4.20;2.30;;;;;;;17.21;54.85;93842.63;4985626;28;20438;-68
2022/07/27 02:15:13;;;;;;;3.70;2.40;;;;;;;17.22;55.11;93844.16;4988357;28;20115;-68
2022/07/27 02:17:45;;;;;;;3.93;2.70;;;;;;;17.10;55.41;93850.63;4998267;28;20042;-68
2022/07/27 02:20:14;;;;;;;4.07;2.33;;;;;;;17.09;55.47;93849.84;4987823;28;20050;-68
2022/07/27 02:22:42;;;;;;;4.07;2.55;;;;;;;17.03;55.85;93850.94;4989881;28;20048;-68
2022/07/27 02:25:10;;;;;;;6.00;2.40;;;;;;;16.64;56.65;93851.25;4982777;28;20060;-68
2022/07/27 02:27:38;;;;;;;6.47;2.63;;;;;;;16.88;56.27;93842.41;4973052;28;20057;-68
2022/07/27 02:30:07;;;;;;;5.50;2.70;;;;;;;16.83;56.62;93835.47;4971255;28;20039;-68
2022/07/27 02:32:34;;;;;;;28.83;17.92;;;;;;;16.83;56.60;93831.94;4971580;28;20051;-68
2022/07/27 02:35:01;;;;;;;10.20;5.90;;;;;;;16.83;56.63;93837.50;4990420;28;20649;-68
2022/07/27 02:37:44;;;;;;;7.78;2.88;;;;;;;16.76;56.88;93830.97;4974855;28;20055;-68
2022/07/27 02:40:11;;;;;;;4.72;2.67;;;;;;;16.45;57.92;93838.56;4971028;28;20073;-68
2022/07/27 02:42:38;;;;;;;3.60;2.60;;;;;;;16.45;57.76;93835.78;4982270;28;20047;-68
2022/07/27 02:45:05;;;;;;;3.70;2.60;;;;;;;16.47;57.72;93834.09;4971396;28;20047;-68
2022/07/27 02:47:32;;;;;;;4.57;2.70;;;;;;;16.51;57.75;93837.50;4983727;28;20389;-68
2022/07/27 02:50:00;;;;;;;4.70;2.85;;;;;;;16.45;57.95;93835.78;4981347;28;20046;-68
2022/07/27 02:52:27;;;;;;;5.47;2.92;;;;;;;16.34;58.29;93836.22;4983748;28;20046;-68
2022/07/27 02:54:54;;;;;;;4.57;2.87;;;;;;;16.31;58.50;93828.81;4974929;28;20661;-68
2022/07/27 02:57:20;;;;;;;4.57;2.70;;;;;;;16.35;58.34;93832.97;4974928;28;20395;-68
2022/07/27 02:59:47;;;;;;;4.38;2.88;;;;;;;16.44;58.11;93826.72;4985750;28;20046;-68
2022/07/27 03:02:14;;;;;;;6.07;2.80;;;;;;;16.36;58.32;93826.22;4982065;28;20389;-68
2022/07/27 03:04:41;;;;;;;4.65;2.85;;;;;;;16.22;58.63;93823.22;4993378;28;20057;-68
2022/07/27 03:07:08;;;;;;;6.17;2.93;;;;;;;16.16;59.17;93823.81;4978184;28;20046;-69
2022/07/27 03:09:34;;;;;;;4.03;2.40;;;;;;;16.26;59.07;93824.63;4981165;28;20055;-69
2022/07/27 03:12:02;;;;;;;4.20;2.80;;;;;;;16.18;58.99;93815.84;4980999;28;20050;-69
2022/07/27 03:14:29;;;;;;;6.72;2.70;;;;;;;16.12;59.17;93811.34;4973811;28;20042;-69
2022/07/27 03:16:55;;;;;;;4.30;2.67;;;;;;;16.05;59.35;93814.38;4974500;28;20049;-69
2022/07/27 03:19:22;;;;;;;5.43;2.83;;;;;;;15.98;59.86;93810.66;4974371;28;20053;-69
2022/07/27 03:21:55;;;;;;;4.57;2.92;;;;;;;16.03;59.64;93805.75;4973680;28;21650;-69
2022/07/27 03:24:22;;;;;;;5.55;2.88;;;;;;;15.97;59.73;93809.09;4979303;28;20050;-69
2022/07/27 03:26:48;;;;;;;4.43;3.00;;;;;;;16.04;59.37;93810.09;4982130;28;20077;-69
2022/07/27 03:29:15;;;;;;;5.03;3.15;;;;;;;15.91;59.85;93810.16;4973911;28;20066;-69
2022/07/27 03:31:44;;;;;;;4.40;2.80;;;;;;;15.95;59.68;93816.31;4973430;28;20047;-70
2022/07/27 03:34:12;;;;;;;5.55;3.00;;;;;;;15.92;59.73;93806.94;4981536;28;20046;-69
2022/07/27 03:36:39;;;;;;;4.40;3.00;;;;;;;15.94;59.73;93804.50;4973008;28;20053;-70
2022/07/27 03:39:06;;;;;;;5.13;3.08;;;;;;;15.82;60.06;93810.13;4974040;28;20046;-69
2022/07/27 03:41:33;;;;;;;4.60;3.40;;;;;;;15.66;60.41;93808.28;4971866;28;20046;-69
2022/07/27 03:43:59;;;;;;;5.17;3.27;;;;;;;15.66;60.89;93816.59;4974129;28;20429;-69
2022/07/27 03:46:26;;;;;;;4.82;3.10;;;;;;;15.63;60.92;93807.19;4973620;28;20053;-69
2022/07/27 03:48:53;;;;;;;6.70;3.28;;;;;;;15.54;61.14;93815.44;4973323;28;20047;-69
2022/07/27 03:51:20;;;;;;;4.88;3.28;;;;;;;15.47;61.30;93816.44;4973874;28;20410;-69
2022/07/27 03:53:47;;;;;;;4.65;3.10;;;;;;;15.38;61.92;93827.44;4973115;28;20436;-67
2022/07/27 03:56:14;;;;;;;4.90;3.10;;;;;;;15.30;62.26;93823.38;4973573;28;20252;-68
2022/07/27 03:58:41;;;;;;;5.18;3.10;;;;;;;15.21;62.97;93818.53;4981744;28;20072;-68
2022/07/27 04:01:07;;;;;;;5.55;3.20;;;;;;;15.13;63.41;93815.28;4977674;28;20039;-68
2022/07/27 04:03:34;;;;;;;5.47;3.17;;;;;;;15.21;63.42;93820.53;4990346;28;20676;-67
2022/07/27 04:06:01;;;;;;;6.43;3.30;;;;;;;15.22;63.18;93817.31;4981141;28;20043;-68
2022/07/27 04:08:27;;;;;;;5.30;3.20;;;;;;;15.33;63.22;93822.47;4987233;28;20437;-67
2022/07/27 04:10:54;;;;;;;5.78;3.17;;;;;;;15.46;62.56;93827.97;4972920;28;20039;-68
2022/07/27 04:13:22;;;;;;;6.45;3.50;;;;;;;15.50;62.55;93829.38;4973338;28;20069;-67
2022/07/27 04:15:51;;;;;;;5.35;3.45;;;;;;;15.55;62.38;93831.59;4971994;28;21039;-68
2022/07/27 04:18:17;;;;;;;7.55;3.15;;;;;;;15.63;62.20;93828.53;4973444;28;20055;-68
2022/07/27 04:20:44;;;;;;;5.40;3.20;;;;;;;15.68;61.97;93834.28;4972462;28;23290;-67
2022/07/27 04:23:11;;;;;;;5.90;3.30;;;;;;;15.74;61.52;93826.19;4983862;28;20454;-67
2022/07/27 04:25:37;;;;;;;4.72;3.13;;;;;;;15.42;63.22;93841.91;4991459;28;20059;-67
2022/07/27 04:28:04;;;;;;;5.55;3.20;;;;;;;15.08;64.48;93843.47;4986787;28;20069;-68
2022/07/27 04:30:31;;;;;;;5.63;3.40;;;;;;;15.13;64.16;93845.69;4982078;28;20043;-67
2022/07/27 04:32:58;;;;;;;4.97;3.37;;;;;;;15.31;63.65;93836.78;4991556;28;20088;-68
2022/07/27 04:35:25;;;;;;;6.03;3.40;;;;;;;15.55;63.05;93833.56;4990196;28;20104;-67
2022/07/27 04:37:53;;;;;;;6.95;3.20;;;;;;;15.51;62.96;93833.72;4991683;28;20046;-68
2022/07/27 04:40:28;;;;;;;6.57;3.85;;;;;;;15.76;62.39;93837.59;4991189;28;20046;-68
2022/07/27 04:42:55;;;;;;;6.88;3.63;;;;;;;15.99;61.93;93836.34;4991287;28;20614;-68
2022/07/27 04:45:21;;;;;;;6.00;3.47;;;;;;;16.12;61.30;93842.56;4991499;28;20052;-69
2022/07/27 04:47:48;;;;;;;4.85;3.30;;;;;;;16.31;60.66;93837.13;4989613;28;20044;-69
2022/07/27 04:50:15;;;;;;;6.30;3.40;;;;;;;16.36;60.39;93836.53;4991308;28;20040;-68
2022/07/27 04:52:42;;;;;;;5.47;3.50;;;;;;;16.52;60.18;93833.53;4990351;28;20057;-67
2022/07/27 04:55:09;;;;;;;4.72;3.35;;;;;;;16.61;59.62;93837.53;4991369;28;20046;-68
2022/07/27 04:57:35;;;;;;;6.37;3.70;;;;;;;16.63;59.72;93846.19;4991045;28;20051;-67
2022/07/27 05:00:06;;;;;;;7.32;3.35;;;;;;;16.86;59.24;93833.78;4991229;28;20484;-69
2022/07/27 05:02:33;;;;;;;6.53;3.40;;;;;;;17.07;58.44;93840.47;4990566;28;20147;-69
2022/07/27 05:05:00;;;;;;;4.90;3.40;;;;;;;17.03;58.16;93840.59;4991166;28;20510;-69
2022/07/27 05:07:26;;;;;;;5.20;3.35;;;;;;;17.11;58.63;93841.84;4990920;28;20042;-69
2022/07/27 05:09:53;;;;;;;6.77;3.70;;;;;;;17.21;58.49;93844.66;4989956;28;20072;-70
2022/07/27 05:12:20;;;;;;;6.15;3.70;;;;;;;17.06;59.29;93850.00;4973721;28;20046;-70
2022/07/27 05:14:46;;;;;;;5.53;3.47;;;;;;;17.10;58.81;93837.56;4990452;28;20064;-69
2022/07/27 05:17:13;;;;;;;6.28;3.42;;;;;;;17.13;58.77;93847.72;4991035;28;20380;-70
2022/07/27 05:19:40;;;;;;;6.30;3.58;;;;;;;17.07;59.05;93848.78;4983137;28;20108;-71
2022/07/27 05:22:07;;;;;;;6.17;3.40;;;;;;;17.10;58.74;93848.66;4972265;28;20043;-70
2022/07/27 05:24:34;;;;;;;7.25;3.47;;;;;;;17.22;58.83;93860.03;4971907;28;20061;-65
2022/07/27 05:27:01;;;;;;;6.32;3.45;;;;;;;17.29;58.47;93863.28;4977424;28;20038;-69
2022/07/27 05:29:28;;;;;;;6.88;3.25;;;;;;;17.00;58.52;93862.94;4985573;28;20383;-70
2022/07/27 05:31:54;;;;;;;7.35;3.42;;;;;;;16.81;59.28;93854.56;4988991;28;20122;-69
2022/07/27 05:34:21;;;;;;;6.57;3.60;;;;;;;17.20;58.16;93860.50;4980470;28;20046;-69
2022/07/27 05:36:48;;;;;;;7.95;3.40;;;;;;;17.28;57.91;93863.75;4978609;28;20054;-68
2022/07/27 05:39:14;;;;;;;6.30;3.30;;;;;;;17.50;57.30;93863.63;4971815;28;20105;-69
2022/07/27 05:41:42;;;;;;;7.35;3.53;;;;;;;17.72;56.96;93872.56;4971075;28;20580;-70
2022/07/27 05:44:09;;;;;;;6.28;3.40;;;;;;;17.55;56.68;93866.56;4971574;28;20045;-69
2022/07/27 05:46:35;;;;;;;7.50;3.80;;;;;;;17.42;57.30;93871.47;4971195;28;20427;-70
2022/07/27 05:49:03;;;;;;;6.22;3.88;;;;;;;16.72;59.26;93863.59;4971523;28;20519;-69
2022/07/27 05:51:30;;;;;;;6.43;3.65;;;;;;;17.03;58.91;93867.56;4971287;28;20043;-69
2022/07/27 05:53:58;;;;;;;7.63;3.50;;;;;;;17.82;56.57;93869.78;4971546;28;20039;-69
2022/07/27 05:56:25;;;;;;;8.07;3.53;;;;;;;17.86;55.96;93873.97;4972110;28;20051;-67
2022/07/27 05:58:52;;;;;;;12.23;3.93;;;;;;;17.55;56.92;93865.78;4983691;28;20187;-71
2022/07/27 06:01:19;;;;;;;12.13;3.90;;;;;;;17.83;55.52;93877.69;4979631;28;20188;-71
2022/07/27 06:03:46;;;;;;;11.32;4.13;;;;;;;17.44;56.91;93874.53;4991080;28;20044;-70
2022/07/27 06:09:01;;;;;;;9.15;3.80;;;;;;;16.60;60.23;93880.31;4988613;28;20556;-69
2022/07/27 06:11:28;;;;;;;11.43;3.60;;;;;;;18.36;55.40;93880.06;4990371;28;20054;-70
2022/07/27 06:13:54;;;;;;;8.48;3.60;;;;;;;20.07;49.40;93866.56;5002261;28;20112;-70
2022/07/27 06:16:22;;;;;;;7.03;3.70;;;;;;;18.27;54.58;93876.53;5010340;28;20394;-70
2022/07/27 06:18:49;;;;;;;6.28;3.88;;;;;;;17.78;56.02;93878.25;5009246;28;20054;-72
2022/07/27 06:21:16;;;;;;;5.18;3.80;;;;;;;17.43;57.62;93881.34;5009932;28;20079;-69
2022/07/27 06:23:43;;;;;;;8.43;4.40;;;;;;;18.42;55.14;93871.09;5009358;28;20487;-71
2022/07/27 06:26:09;;;;;;;6.15;3.47;;;;;;;19.71;51.44;93862.84;4994845;28;20479;-70
2022/07/27 06:28:36;;;;;;;7.43;4.13;;;;;;;18.42;54.93;93862.75;5009556;28;20038;-69
2022/07/27 06:31:03;;;;;;;8.38;3.85;;;;;;;17.95;56.25;93871.19;5009611;28;20044;-69
2022/07/27 06:33:32;;;;;;;10.98;4.50;;;;;;;17.97;56.27;93876.28;5011512;28;20052;-69
2022/07/27 06:35:59;;;;;;;6.00;4.37;;;;;;;17.39;58.08;93875.19;5014465;28;20069;-71
2022/07/27 06:38:27;;;;;;;6.35;4.20;;;;;;;19.78;52.01;93867.31;5009646;28;20072;-70
2022/07/27 06:40:54;;;;;;;7.13;3.80;;;;;;;19.84;50.31;93859.03;5009566;28;20057;-70
2022/07/27 06:43:26;;;;;;;7.75;3.78;;;;;;;18.50;54.84;93866.75;5009667;28;20053;-69
2022/07/27 06:45:53;;;;;;;10.63;4.05;;;;;;;19.23;52.74;93857.28;5008672;28;20042;-70
2022/07/27 06:48:20;;;;;;;6.83;4.50;;;;;;;19.98;50.30;93857.53;4996091;28;20388;-70
2022/07/27 06:50:48;;;;;;;6.00;4.30;;;;;;;20.32;49.78;93865.25;5040205;28;20068;-71
2022/07/27 06:53:15;;;;;;;7.75;4.40;;;;;;;21.71;46.62;93864.28;4994407;28;20404;-71
2022/07/27 06:55:47;;;;;;;6.78;3.83;;;;;;;21.49;46.35;93859.19;4995414;28;20046;-72
2022/07/27 06:58:14;;;;;;;7.68;4.32;;;;;;;20.93;48.71;93861.16;5009938;28;20038;-71
2022/07/27 07:00:41;;;;;;;8.47;4.33;;;;;;;20.38;50.61;93867.34;5009114;28;20049;-71
2022/07/27 07:03:07;;;;;;;6.75;4.60;;;;;;;19.44;52.19;93860.28;5015255;28;20038;-71
2022/07/27 07:05:41;;;;;;;6.97;4.50;;;;;;;20.35;51.00;93864.28;5040510;28;20138;-71
2022/07/27 07:08:10;;;;;;;6.20;4.40;;;;;;;22.68;44.28;93866.78;4988866;28;20038;-72
2022/07/27 07:10:38;;;;;;;8.35;4.20;;;;;;;21.03;48.55;93857.00;5008678;28;20050;-72
2022/07/27 07:13:06;;;;;;;15.40;5.00;;;;;;;20.32;50.21;93864.47;5009446;28;20053;-72
2022/07/27 07:15:35;;;;;;;6.72;4.70;;;;;;;20.67;49.93;93864.56;5009099;28;20120;-71
2022/07/27 07:18:02;;;;;;;6.43;4.82;;;;;;;21.96;45.80;93858.44;5009516;28;20049;-73
2022/07/27 07:20:30;;;;;;;7.63;4.55;;;;;;;21.83;46.80;93856.78;5009345;28;20067;-73
2022/07/27 07:22:57;;;;;;;7.15;4.43;;;;;;;21.78;47.04;93868.66;5007170;28;20380;-73
2022/07/27 07:25:25;;;;;;;8.10;4.60;;;;;;;22.27;45.90;93855.72;4998404;28;20054;-72
2022/07/27 07:27:52;;;;;;;7.55;4.68;;;;;;;20.74;49.49;93853.03;5006895;28;20034;-73
2022/07/27 07:30:20;;;;;;;8.25;4.57;;;;;;;21.42;48.43;93858.78;5009524;28;20052;-70
2022/07/27 07:32:46;;;;;;;6.78;4.50;;;;;;;21.86;47.31;93857.81;5009071;28;20387;-70
2022/07/27 07:35:13;;;;;;;10.45;4.88;;;;;;;20.43;49.81;93859.09;5013520;28;20038;-70
2022/07/27 07:37:40;;;;;;;7.33;5.00;;;;;;;19.71;51.68;93867.66;5012796;28;20046;-70
2022/07/27 07:40:09;;;;;;;7.57;4.57;;;;;;;20.57;49.48;93859.56;5012822;28;20394;-71
2022/07/27 07:42:59;;;;;;;7.50;4.85;;;;;;;20.41;50.49;93853.22;5011754;28;20406;-71
2022/07/27 07:45:28;;;;;;;7.38;4.18;;;;;;;22.10;46.54;93857.56;5012244;28;20050;-71
2022/07/27 07:47:56;;;;;;;5.57;3.42;;;;;;;24.44;40.01;93852.38;5012370;28;20048;-70
2022/07/27 07:50:23;;;;;;;4.77;3.10;;;;;;;24.15;38.90;93850.00;5012638;28;20405;-71
2022/07/27 07:52:52;;;;;;;8.30;3.78;;;;;;;23.68;39.85;93859.53;5011385;28;20420;-71
2022/07/27 07:55:21;;;;;;;6.00;3.45;;;;;;;24.02;39.78;93854.06;5012780;28;20084;-71
2022/07/27 07:57:48;;;;;;;7.07;3.50;;;;;;;23.80;39.65;93857.56;5037668;28;20052;-71
2022/07/27 08:00:16;;;;;;;5.25;3.15;;;;;;;24.93;37.42;93854.94;5013004;28;20418;-70
2022/07/27 08:02:47;;;;;;;5.53;3.43;;;;;;;26.13;35.62;93854.16;5023414;28;20048;-72
2022/07/27 08:05:15;;;;;;;6.05;3.20;;;;;;;29.08;30.94;93854.06;4999721;28;20041;-71
2022/07/27 08:07:43;;;;;;;4.85;3.63;;;;;;;27.04;33.24;93857.13;5012241;28;20054;-72
2022/07/27 08:10:12;;;;;;;5.72;3.63;;;;;;;27.39;33.95;93859.13;5012434;28;20053;-72
2022/07/27 08:12:42;;;;;;;7.95;3.72;;;;;;;29.80;30.10;93853.34;5011800;28;20408;-72
2022/07/27 08:15:10;;;;;;;4.90;3.00;;;;;;;30.86;27.88;93852.34;5012144;28;20042;-72
2022/07/27 08:17:37;;;;;;;6.80;3.10;;;;;;;31.64;26.09;93854.56;5011892;28;20052;-72
2022/07/27 08:20:05;;;;;;;8.02;3.20;;;;;;;28.60;30.51;93860.75;5011915;28;20089;-73
2022/07/27 08:22:32;;;;;;;8.55;3.30;;;;;;;30.73;27.57;93860.16;5011724;28;20038;-72
2022/07/27 08:24:59;;;;;;;6.38;3.60;;;;;;;24.98;36.78;93871.03;5008118;28;20042;-72
2022/07/27 08:27:26;;;;;;;5.57;3.50;;;;;;;25.41;36.20;93869.97;4999937;28;20041;-72
2022/07/27 08:29:53;;;;;;;5.95;3.50;;;;;;;28.29;31.23;93862.94;5011623;28;20068;-72
2022/07/27 08:32:20;;;;;;;8.85;3.40;;;;;;;27.58;32.40;93862.00;5012002;28;20042;-72
2022/07/27 08:34:47;;;;;;;8.18;3.17;;;;;;;28.74;30.20;93855.94;5021344;28;20071;-72
2022/07/27 08:37:14;;;;;;;7.75;3.28;;;;;;;24.87;35.64;93860.59;5011769;28;20045;-72
2022/07/27 08:39:41;;;;;;;7.70;3.17;;;;;;;23.18;39.34;93868.44;5011494;28;20075;-71
2022/07/27 08:42:29;;;;;;;6.55;2.90;;;;;;;25.81;34.02;93860.13;5011557;28;20046;-72
2022/07/27 08:44:57;;;;;;;5.63;2.80;;;;;;;29.08;28.64;93862.56;5011369;28;20038;-73
2022/07/27 08:47:24;;;;;;;4.95;2.80;;;;;;;29.85;27.74;93854.53;5011867;28;20045;-73
2022/07/27 08:49:51;;;;;;;4.97;2.80;;;;;;;29.35;28.58;93851.31;5010669;28;21000;-73
2022/07/27 08:52:19;;;;;;;5.13;3.00;;;;;;;29.99;27.32;93858.13;5011764;28;20505;-73
2022/07/27 08:54:46;;;;;;;7.90;2.95;;;;;;;30.58;26.94;93852.25;5009652;28;20050;-74
2022/07/27 08:57:14;;;;;;;25.80;3.88;;;;;;;30.41;27.06;93847.72;5009524;28;20118;-73
2022/07/27 08:59:40;;;;;;;4.57;2.90;;;;;;;29.12;29.92;93858.66;5011709;28;20048;-73
2022/07/27 09:02:12;;;;;;;5.55;2.97;;;;;;;29.89;28.11;93859.88;5018094;28;20494;-73
2022/07/27 09:04:39;;;;;;;5.90;2.47;;;;;;;31.31;25.49;93856.19;5018871;28;20038;-73
2022/07/27 09:07:07;;;;;;;5.60;2.38;;;;;;;29.94;26.87;93856.16;5011544;28;20041;-73
2022/07/27 09:09:45;;;;;;;7.47;2.60;;;;;;;29.07;28.17;93844.06;5010768;28;20052;-73
2022/07/27 09:12:12;;;;;;;5.72;2.80;;;;;;;28.26;29.89;93853.50;5011003;28;20042;-74
2022/07/27 09:14:40;;;;;;;6.05;2.78;;;;;;;31.00;26.56;93849.47;5009866;28;20127;-74
2022/07/27 09:17:26;;;;;;;5.00;2.70;;;;;;;32.09;25.07;93846.13;5011114;28;20526;-75
2022/07/27 09:20:16;;;;;;;7.35;2.90;;;;;;;31.72;25.16;93843.25;5009978;28;21016;-75
2022/07/27 09:22:52;;;;;;;4.10;2.70;;;;;;;31.21;25.23;93849.47;5010725;28;20060;-75
2022/07/27 09:25:25;;;;;;;6.78;2.72;;;;;;;31.09;25.49;93846.16;5011216;28;20491;-75
2022/07/27 09:28:12;;;;;;;5.25;2.60;;;;;;;32.04;24.58;93850.66;5009854;28;21436;-75
2022/07/27 09:30:42;;;;;;;3.87;2.50;;;;;;;32.48;24.83;93847.81;5010393;28;20045;-75
2022/07/27 09:33:09;;;;;;;5.90;2.85;;;;;;;31.55;25.55;93845.78;5010865;28;20123;-75
2022/07/27 09:35:36;;;;;;;7.32;2.67;;;;;;;31.49;24.86;93845.19;5022479;28;20052;-75
2022/07/27 09:38:23;;;;;;;5.97;2.80;;;;;;;29.84;26.67;93847.34;5010739;28;20048;-75
2022/07/27 09:41:05;;;;;;;6.60;3.00;;;;;;;29.56;28.24;93853.50;5009983;28;20440;-75
2022/07/27 09:43:45;;;;;;;5.23;3.00;;;;;;;28.91;28.78;93847.94;5010511;28;20042;-75
2022/07/27 09:46:35;;;;;;;7.47;3.20;;;;;;;29.61;28.42;93852.66;5010275;28;20057;-75
2022/07/27 09:49:03;;;;;;;8.55;3.08;;;;;;;31.10;25.74;93856.19;5010349;28;20044;-75
2022/07/27 09:51:32;;;;;;;4.72;3.10;;;;;;;29.66;27.96;93848.94;5010522;28;20042;-76
2022/07/27 09:54:18;;;;;;;7.15;3.28;;;;;;;27.80;30.33;93860.97;5010727;28;20050;-74
2022/07/27 09:57:00;;;;;;;6.50;3.00;;;;;;;31.10;25.39;93852.59;5003392;28;20050;-73
2022/07/27 09:59:28;;;;;;;7.00;2.80;;;;;;;32.38;24.28;93850.44;5006507;28;20052;-74
2022/07/27 10:01:55;;;;;;;4.85;2.97;;;;;;;29.24;28.30;93848.72;5013607;28;20041;-75
2022/07/27 10:04:23;;;;;;;5.05;2.70;;;;;;;28.46;28.49;93849.38;5017852;28;20037;-75
2022/07/27 10:06:50;;;;;;;5.18;2.67;;;;;;;28.60;27.64;93861.50;5009850;28;20045;-75
2022/07/27 10:09:30;;;;;;;7.63;2.80;;;;;;;30.04;26.07;93848.75;5009793;28;20045;-74
2022/07/27 10:11:57;;;;;;;5.85;2.70;;;;;;;27.34;29.94;93851.47;5010023;28;20042;-74
2022/07/27 10:14:24;;;;;;;5.43;2.90;;;;;;;27.22;30.39;93856.44;4998351;28;20034;-74
2022/07/27 10:16:53;;;;;;;5.05;2.80;;;;;;;24.37;34.71;93863.31;5009443;28;20578;-74
2022/07/27 10:19:43;;;;;;;5.80;3.00;;;;;;;23.83;36.40;93864.22;5010221;28;20483;-73
2022/07/27 10:22:10;;;;;;;5.13;2.93;;;;;;;23.55;37.22;93866.88;5009243;28;20430;-73
2022/07/27 10:24:37;;;;;;;4.55;2.85;;;;;;;25.94;33.62;93856.03;5009779;28;20042;-73
2022/07/27 10:27:30;;;;;;;6.05;3.40;;;;;;;26.44;32.45;93857.78;5009798;28;20411;-73
2022/07/27 10:29:57;;;;;;;6.40;3.08;;;;;;;28.54;28.56;93849.53;5008735;28;20045;-75
2022/07/27 10:32:25;;;;;;;6.18;2.72;;;;;;;30.69;25.06;93845.53;5010147;28;20513;-75
2022/07/27 10:34:52;;;;;;;3.43;2.23;;;;;;;31.01;25.72;93845.34;5015814;28;20042;-75
2022/07/27 10:38:04;;;;;;;4.93;2.50;;;;;;;31.74;24.27;93840.63;5041350;28;20042;-75
2022/07/27 10:40:34;;;;;;;5.60;2.60;;;;;;;28.38;28.85;93840.00;5008674;28;20053;-75
2022/07/27 10:43:19;;;;;;;4.63;2.55;;;;;;;25.56;32.90;93842.38;5040646;28;20088;-75
2022/07/27 10:45:50;;;;;;;4.45;2.70;;;;;;;24.97;33.07;93846.28;5009693;28;20133;-74
2022/07/27 10:48:40;;;;;;;4.13;2.40;;;;;;;25.13;33.20;93845.47;5009727;28;20072;-74
2022/07/27 10:51:15;;;;;;;5.45;2.72;;;;;;;24.52;33.65;93845.00;5009631;28;20049;-74
2022/07/27 10:53:44;;;;;;;4.30;2.80;;;;;;;25.32;33.53;93848.56;4999593;28;20537;-74
2022/07/27 10:56:45;;;;;;;4.95;3.10;;;;;;;26.47;31.35;93840.63;5008618;28;20119;-74
2022/07/27 10:59:12;;;;;;;5.72;2.63;;;;;;;27.13;29.72;93839.88;5009353;28;20052;-74
2022/07/27 11:01:57;;;;;;;5.10;2.83;;;;;;;24.97;33.15;93844.25;5011433;28;20053;-74
2022/07/27 11:04:24;;;;;;;4.30;2.53;;;;;;;27.77;29.30;93838.69;5019248;28;20050;-74
2022/07/27 11:07:00;;;;;;;5.63;2.60;;;;;;;27.07;29.94;93839.19;5008634;28;20615;-74
2022/07/27 11:09:49;;;;;;;4.13;2.40;;;;;;;27.31;29.76;93835.63;5013026;28;20046;-73
2022/07/27 11:12:33;;;;;;;3.53;2.47;;;;;;;26.93;29.05;93838.28;5012857;28;20396;-73
2022/07/27 11:15:00;;;;;;;3.83;2.37;;;;;;;26.95;29.70;93830.06;5013179;28;20415;-74
2022/07/27 11:17:28;;;;;;;4.10;2.45;;;;;;;26.89;30.05;93832.91;5013078;28;20041;-73
2022/07/27 11:20:21;;;;;;;3.78;2.45;;;;;;;28.24;28.02;93822.22;5013108;28;20054;-74
2022/07/27 11:22:48;;;;;;;4.80;2.20;;;;;;;28.46;27.64;93821.13;5013250;28;20060;-75
2022/07/27 11:25:34;;;;;;;4.65;2.45;;;;;;;28.39;27.99;93815.34;5012468;28;20050;-73
2022/07/27 11:28:08;;;;;;;4.13;2.30;;;;;;;26.21;31.24;93823.44;5011348;28;20041;-73
2022/07/27 11:30:35;;;;;;;5.43;2.58;;;;;;;26.35;30.49;93821.56;5000008;28;20041;-74
2022/07/27 11:33:06;;;;;;;10.35;2.80;;;;;;;26.39;30.02;93828.41;5013387;28;20042;-77
2022/07/27 11:35:32;;;;;;;4.97;2.40;;;;;;;26.87;28.91;93818.59;5015360;28;20042;-74
2022/07/27 11:38:04;;;;;;;3.88;2.20;;;;;;;27.68;28.45;93817.28;5011947;28;20050;-74
2022/07/27 11:40:42;;;;;;;3.97;2.27;;;;;;;27.75;28.68;93815.91;5012882;28;20076;-74
2022/07/27 11:43:38;;;;;;;4.60;2.50;;;;;;;25.65;31.89;93813.94;5012599;28;20045;-74
2022/07/27 11:46:11;;;;;;;4.15;2.65;;;;;;;25.77;31.74;93813.91;5012823;28;20056;-74
2022/07/27 11:48:45;;;;;;;4.88;2.30;;;;;;;26.46;30.79;93813.00;5012350;28;20045;-74